createdAt,value
2018-10-18T00:00:41.713Z,50.30
2018-10-18T00:01:41.599Z,48.90
2018-10-18T00:02:41.665Z,50.60
2018-10-18T00:03:41.551Z,49.70
2018-10-18T00:04:41.572Z,49.90
2018-10-18T00:05:41.494Z,47.80
2018-10-18T00:06:41.485Z,48.60
2018-10-18T00:07:41.445Z,49.40
2018-10-18T00:08:41.516Z,48.10
2018-10-18T00:09:41.397Z,49.50
2018-10-18T00:10:41.421Z,48.30
2018-10-18T00:11:41.357Z,47.90
2018-10-18T00:12:41.423Z,48.70
2018-10-18T00:13:41.290Z,49.40
2018-10-18T00:14:41.336Z,48.70
2018-10-18T00:15:41.248Z,47.10
2018-10-18T00:16:41.252Z,49.90
2018-10-18T00:17:41.185Z,50.10
2018-10-18T00:18:41.257Z,50.00
2018-10-18T00:19:41.154Z,49.60
2018-10-18T00:20:41.187Z,49.50
2018-10-18T00:21:41.090Z,50.00
2018-10-18T00:23:27.333Z,50.10
2018-10-18T00:24:27.290Z,49.10
2018-10-18T00:25:27.268Z,50.50
2018-10-18T00:26:27.245Z,50.00
2018-10-18T00:27:27.208Z,49.50
2018-10-18T00:28:27.199Z,50.30
2018-10-18T00:29:27.164Z,51.20
2018-10-18T00:30:27.138Z,51.20
2018-10-18T00:31:27.119Z,52.40
2018-10-18T00:32:27.117Z,50.40
2018-10-18T00:33:27.055Z,51.80
2018-10-18T00:34:27.038Z,51.50
2018-10-18T00:35:27.006Z,50.80
2018-10-18T00:36:27.041Z,51.30
2018-10-18T00:37:26.967Z,51.10
2018-10-18T00:38:26.929Z,51.10
2018-10-18T00:39:26.905Z,49.30
2018-10-18T00:40:26.969Z,51.30
2018-10-18T00:41:26.853Z,50.60
2018-10-18T00:42:26.825Z,50.40
2018-10-18T00:43:26.833Z,50.10
2018-10-18T00:44:26.776Z,51.20
2018-10-18T00:45:26.864Z,50.00
2018-10-18T00:46:26.730Z,51.10
2018-10-18T00:47:26.706Z,54.10
2018-10-18T00:48:26.765Z,51.50
2018-10-18T00:50:12.591Z,50.40
2018-10-18T00:51:12.479Z,51.10
2018-10-18T00:52:12.557Z,49.00
2018-10-18T00:53:12.416Z,49.70
2018-10-18T00:54:12.479Z,46.80
2018-10-18T00:55:12.378Z,46.80
2018-10-18T00:56:12.371Z,44.20
2018-10-18T00:57:12.317Z,45.30
2018-10-18T00:58:12.295Z,43.30
2018-10-18T00:59:12.314Z,43.90
2018-10-18T01:00:12.320Z,43.00
2018-10-18T01:01:12.221Z,42.20
2018-10-18T01:02:12.243Z,42.60
2018-10-18T01:03:12.171Z,40.00
2018-10-18T01:04:58.606Z,41.60
2018-10-18T01:05:58.619Z,39.20
2018-10-18T01:06:58.543Z,37.90
2018-10-18T01:07:58.551Z,39.20
2018-10-18T01:08:58.502Z,37.00
2018-10-18T01:09:58.465Z,37.20
2018-10-18T01:10:58.445Z,35.90
2018-10-18T01:11:58.449Z,36.30
2018-10-18T01:12:58.389Z,36.90
2018-10-18T01:13:58.427Z,35.00
2018-10-18T01:14:58.339Z,35.60
2018-10-18T01:15:58.318Z,34.30
2018-10-18T01:16:58.331Z,35.20
2018-10-18T01:17:58.276Z,33.90
2018-10-18T01:18:58.347Z,33.30
2018-10-18T01:19:58.222Z,34.00
2018-10-18T01:20:59.281Z,33.60
2018-10-18T01:21:58.161Z,33.30
2018-10-18T01:22:58.169Z,32.40
2018-10-18T01:23:58.132Z,33.00
2018-10-18T01:24:58.181Z,32.20
2018-10-18T01:25:58.115Z,32.70
2018-10-18T01:26:58.104Z,32.90
2018-10-18T01:27:58.000Z,32.10
2018-10-18T01:28:58.010Z,30.70
2018-10-18T01:29:58.023Z,29.60
2018-10-18T01:30:58.027Z,30.30
2018-10-18T01:31:57.946Z,31.00
2018-10-18T01:33:43.952Z,30.30
2018-10-18T01:34:43.960Z,30.90
2018-10-18T01:35:43.814Z,30.50
2018-10-18T01:36:43.846Z,30.00
2018-10-18T01:37:43.835Z,30.80
2018-10-18T01:38:43.740Z,30.10
2018-10-18T01:39:43.714Z,28.80
2018-10-18T01:40:43.697Z,29.60
2018-10-18T01:41:43.800Z,27.10
2018-10-18T01:42:43.642Z,29.30
2018-10-18T01:43:43.679Z,27.90
2018-10-18T01:44:43.592Z,28.10
2018-10-18T01:45:43.585Z,28.10
2018-10-18T01:46:43.544Z,28.90
2018-10-18T01:47:43.595Z,28.80
2018-10-18T01:48:43.477Z,27.90
2018-10-18T01:50:34.363Z,28.20
2018-10-18T01:51:34.406Z,27.70
2018-10-18T01:52:34.291Z,27.80
2018-10-18T01:53:34.271Z,27.90
2018-10-18T01:54:34.324Z,27.50
2018-10-18T01:55:34.214Z,26.80
2018-10-18T01:56:34.198Z,26.90
2018-10-18T01:57:34.171Z,27.00
2018-10-18T01:58:34.241Z,26.90
2018-10-18T01:59:34.121Z,26.00
2018-10-18T02:00:34.093Z,26.50
2018-10-18T02:01:34.068Z,24.80
2018-10-18T02:02:34.060Z,25.70
2018-10-18T02:03:34.009Z,24.50
2018-10-18T02:04:34.004Z,26.30
2018-10-18T02:05:33.954Z,25.70
2018-10-18T02:06:35.049Z,26.50
2018-10-18T02:07:33.904Z,25.20
2018-10-18T02:08:33.881Z,26.00
2018-10-18T02:09:33.864Z,25.20
2018-10-18T02:10:33.914Z,25.70
2018-10-18T02:11:33.829Z,25.00
2018-10-18T02:12:33.782Z,25.20
2018-10-18T02:13:33.844Z,26.70
2018-10-18T02:14:33.731Z,25.50
2018-10-18T02:15:33.751Z,25.30
2018-10-18T02:16:33.688Z,24.60
2018-10-18T02:18:19.693Z,26.40
2018-10-18T02:19:19.728Z,23.70
2018-10-18T02:20:19.541Z,24.70
2018-10-18T02:21:19.556Z,22.90
2018-10-18T02:22:19.490Z,22.40
2018-10-18T02:23:19.465Z,23.90
2018-10-18T02:24:19.473Z,24.00
2018-10-18T02:25:19.456Z,22.90
2018-10-18T02:26:19.381Z,23.80
2018-10-18T02:27:19.391Z,23.10
2018-10-18T02:28:19.356Z,23.10
2018-10-18T02:29:19.304Z,23.40
2018-10-18T02:30:19.444Z,23.00
2018-10-18T02:31:19.314Z,22.40
2018-10-18T02:32:19.222Z,21.40
2018-10-18T02:33:19.227Z,22.60
2018-10-18T02:34:19.173Z,23.10
2018-10-18T02:36:05.171Z,22.80
2018-10-18T02:37:05.045Z,22.40
2018-10-18T02:38:05.016Z,23.00
2018-10-18T02:39:04.990Z,22.10
2018-10-18T02:40:04.962Z,22.90
2018-10-18T02:41:04.946Z,22.60
2018-10-18T02:42:04.949Z,22.00
2018-10-18T02:43:04.962Z,21.90
2018-10-18T02:44:04.860Z,22.40
2018-10-18T02:45:04.877Z,22.80
2018-10-18T02:46:11.328Z,23.00
2018-10-18T02:47:51.158Z,21.50
2018-10-18T02:48:51.095Z,21.00
2018-10-18T02:49:51.075Z,21.90
2018-10-18T02:50:51.070Z,22.40
2018-10-18T02:51:51.019Z,21.50
2018-10-18T02:52:51.088Z,21.10
2018-10-18T02:53:50.976Z,21.70
2018-10-18T02:54:50.994Z,21.70
2018-10-18T02:55:50.914Z,21.50
2018-10-18T02:56:51.013Z,21.50
2018-10-18T02:57:50.872Z,21.20
2018-10-18T02:58:50.930Z,21.20
2018-10-18T03:00:36.757Z,21.00
2018-10-18T03:01:36.742Z,19.30
2018-10-18T03:02:36.709Z,20.10
2018-10-18T03:03:36.675Z,21.10
2018-10-18T03:04:36.650Z,20.40
2018-10-18T03:05:36.627Z,20.90
2018-10-18T03:06:36.600Z,20.20
2018-10-18T03:07:36.570Z,20.20
2018-10-18T03:08:36.613Z,19.70
2018-10-18T03:09:36.525Z,19.60
2018-10-18T03:10:36.497Z,18.80
2018-10-18T03:11:36.536Z,19.30
2018-10-18T03:12:36.590Z,19.10
2018-10-18T03:13:36.449Z,20.40
2018-10-18T03:14:36.393Z,19.90
2018-10-18T03:15:36.457Z,19.80
2018-10-18T03:16:36.337Z,20.20
2018-10-18T03:17:36.370Z,19.50
2018-10-18T03:18:36.307Z,19.70
2018-10-18T03:19:36.385Z,18.90
2018-10-18T03:20:36.242Z,20.30
2018-10-18T03:21:36.289Z,19.00
2018-10-18T03:22:36.195Z,19.90
2018-10-18T03:23:36.208Z,20.80
2018-10-18T03:24:36.142Z,20.20
2018-10-18T03:25:36.220Z,19.40
2018-10-18T03:26:36.089Z,18.80
2018-10-18T03:27:36.128Z,19.00
2018-10-18T03:28:36.048Z,19.80
2018-10-18T03:29:36.012Z,19.00
2018-10-18T03:30:35.991Z,19.10
2018-10-18T03:31:36.054Z,18.20
2018-10-18T03:32:35.952Z,17.80
2018-10-18T03:33:35.906Z,20.70
2018-10-18T03:35:21.700Z,19.20
2018-10-18T03:36:21.754Z,18.60
2018-10-18T03:37:21.683Z,18.80
2018-10-18T03:38:21.664Z,19.50
2018-10-18T03:39:21.588Z,18.40
2018-10-18T03:40:21.676Z,18.90
2018-10-18T03:41:21.602Z,18.20
2018-10-18T03:42:21.602Z,17.00
2018-10-18T03:43:21.486Z,18.80
2018-10-18T03:44:21.502Z,18.00
2018-10-18T03:45:21.436Z,18.20
2018-10-18T03:46:21.516Z,17.80
2018-10-18T03:47:21.382Z,18.30
2018-10-18T03:48:21.394Z,18.50
2018-10-18T03:49:21.334Z,18.70
2018-10-18T03:50:21.385Z,17.80
2018-10-18T03:51:21.288Z,19.10
2018-10-18T03:52:21.291Z,20.10
2018-10-18T03:53:21.234Z,20.20
2018-10-18T03:54:21.310Z,18.70
2018-10-18T03:55:21.176Z,19.70
2018-10-18T03:56:21.220Z,19.50
2018-10-18T03:57:21.132Z,18.80
2018-10-18T03:58:21.140Z,18.60
2018-10-18T03:59:21.076Z,18.30
2018-10-18T04:00:22.103Z,19.20
2018-10-18T04:01:21.027Z,18.80
2018-10-18T04:02:21.054Z,17.60
2018-10-18T04:03:20.972Z,18.10
2018-10-18T04:04:20.965Z,19.40
2018-10-18T04:05:20.919Z,18.50
2018-10-18T04:06:21.061Z,20.20
2018-10-18T04:07:20.868Z,18.40
2018-10-18T04:08:20.894Z,18.30
2018-10-18T04:09:20.824Z,19.30
2018-10-18T04:10:20.803Z,19.40
2018-10-18T04:11:20.770Z,18.50
2018-10-18T04:12:21.953Z,17.70
2018-10-18T04:13:20.736Z,18.10
2018-10-18T04:14:20.727Z,19.80
2018-10-18T04:15:20.672Z,19.20
2018-10-18T04:16:20.745Z,20.30
2018-10-18T04:17:20.618Z,18.40
2018-10-18T04:18:20.702Z,18.40
2018-10-18T04:19:20.562Z,19.00
2018-10-18T04:20:20.563Z,18.90
2018-10-18T04:21:20.509Z,19.30
2018-10-18T04:22:20.581Z,20.00
2018-10-18T04:23:20.467Z,18.30
2018-10-18T04:24:20.491Z,20.80
2018-10-18T04:25:20.456Z,18.50
2018-10-18T04:26:20.399Z,19.50
2018-10-18T04:27:20.354Z,20.20
2018-10-18T04:28:20.424Z,18.90
2018-10-18T04:29:20.302Z,19.70
2018-10-18T04:30:20.442Z,20.40
2018-10-18T04:31:20.260Z,19.60
2018-10-18T04:32:20.235Z,19.30
2018-10-18T04:33:20.198Z,18.90
2018-10-18T04:34:20.260Z,20.50
2018-10-18T04:35:20.153Z,20.70
2018-10-18T04:36:20.253Z,18.50
2018-10-18T04:37:20.168Z,20.00
2018-10-18T04:38:20.180Z,18.90
2018-10-18T04:39:20.051Z,18.50
2018-10-18T04:40:20.086Z,20.00
2018-10-18T04:41:20.001Z,20.50
2018-10-18T04:42:20.003Z,20.30
2018-10-18T04:43:19.941Z,19.40
2018-10-18T04:44:21.030Z,20.20
2018-10-18T04:45:19.897Z,19.10
2018-10-18T04:46:19.927Z,19.60
2018-10-18T04:47:19.935Z,19.60
2018-10-18T04:48:20.934Z,19.40
2018-10-18T04:49:19.788Z,18.60
2018-10-18T04:50:19.862Z,20.30
2018-10-18T04:51:19.733Z,18.90
2018-10-18T04:52:19.738Z,18.40
2018-10-18T04:53:19.678Z,17.60
2018-10-18T04:54:19.737Z,17.60
2018-10-18T04:55:19.628Z,18.10
2018-10-18T04:56:19.651Z,17.50
2018-10-18T04:57:19.577Z,17.50
2018-10-18T04:58:19.659Z,17.30
2018-10-18T04:59:19.529Z,18.10
2018-10-18T05:00:19.546Z,17.40
2018-10-18T05:01:19.572Z,16.80
2018-10-18T05:02:19.491Z,17.20
2018-10-18T05:03:19.432Z,16.70
2018-10-18T05:04:19.515Z,16.20
2018-10-18T05:05:19.376Z,16.00
2018-10-18T05:06:19.414Z,16.10
2018-10-18T05:07:19.414Z,16.60
2018-10-18T05:08:19.339Z,15.60
2018-10-18T05:09:19.272Z,15.30
2018-10-18T05:10:19.348Z,15.10
2018-10-18T05:11:19.243Z,15.00
2018-10-18T05:12:19.276Z,19.00
2018-10-18T05:13:19.229Z,15.60
2018-10-18T05:14:19.160Z,15.60
2018-10-18T05:16:08.095Z,16.40
2018-10-18T05:17:08.158Z,14.60
2018-10-18T05:18:08.068Z,15.50
2018-10-18T05:19:08.094Z,14.90
2018-10-18T05:20:08.009Z,15.10
2018-10-18T05:21:08.022Z,13.90
2018-10-18T05:22:07.916Z,14.10
2018-10-18T05:23:07.892Z,14.50
2018-10-18T05:24:07.876Z,14.70
2018-10-18T05:25:07.962Z,14.70
2018-10-18T05:26:07.817Z,14.10
2018-10-18T05:27:07.784Z,13.80
2018-10-18T05:28:07.762Z,14.20
2018-10-18T05:29:07.798Z,14.10
2018-10-18T05:30:07.711Z,14.60
2018-10-18T05:31:54.908Z,15.30
2018-10-18T05:32:55.955Z,14.00
2018-10-18T05:33:54.832Z,13.80
2018-10-18T05:34:54.795Z,14.40
2018-10-18T05:35:54.780Z,14.40
2018-10-18T05:36:54.835Z,14.40
2018-10-18T05:37:54.721Z,14.40
2018-10-18T05:38:54.694Z,14.70
2018-10-18T05:39:54.664Z,14.60
2018-10-18T05:40:54.665Z,15.40
2018-10-18T05:41:54.680Z,16.40
2018-10-18T05:42:54.597Z,15.30
2018-10-18T05:43:54.561Z,15.10
2018-10-18T05:44:54.532Z,15.10
2018-10-18T05:45:54.518Z,14.80
2018-10-18T05:46:55.532Z,15.60
2018-10-18T05:47:54.469Z,14.60
2018-10-18T05:48:54.456Z,14.70
2018-10-18T05:49:54.421Z,13.60
2018-10-18T05:50:54.391Z,15.70
2018-10-18T05:51:54.443Z,15.80
2018-10-18T05:52:54.388Z,15.40
2018-10-18T05:54:41.114Z,15.70
2018-10-18T05:55:41.076Z,14.30
2018-10-18T05:56:41.051Z,14.40
2018-10-18T05:57:41.065Z,15.70
2018-10-18T05:58:40.990Z,15.30
2018-10-18T05:59:40.974Z,15.40
2018-10-18T06:00:40.989Z,15.40
2018-10-18T06:01:40.925Z,15.70
2018-10-18T06:02:40.892Z,14.60
2018-10-18T06:03:40.883Z,15.50
2018-10-18T06:04:40.841Z,14.70
2018-10-18T06:05:40.922Z,15.50
2018-10-18T06:06:40.806Z,14.80
2018-10-18T06:08:29.123Z,14.90
2018-10-18T06:09:29.084Z,14.90
2018-10-18T06:10:29.127Z,14.90
2018-10-18T06:11:29.182Z,15.60
2018-10-18T06:12:29.023Z,14.90
2018-10-18T06:13:29.170Z,14.70
2018-10-18T06:14:29.017Z,14.00
2018-10-18T06:16:17.002Z,15.30
2018-10-18T06:17:16.968Z,14.00
2018-10-18T06:18:17.103Z,14.40
2018-10-18T06:19:17.028Z,14.80
2018-10-18T06:20:16.957Z,14.40
2018-10-18T06:21:16.868Z,14.40
2018-10-18T06:22:16.827Z,14.20
2018-10-18T06:23:17.074Z,14.40
2018-10-18T06:24:16.775Z,14.20
2018-10-18T06:25:16.996Z,13.90
2018-10-18T06:26:16.771Z,13.50
2018-10-18T06:27:16.795Z,13.90
2018-10-18T06:28:16.674Z,13.50
2018-10-18T06:29:16.892Z,13.90
2018-10-18T06:30:16.637Z,13.60
2018-10-18T06:31:16.729Z,13.50
2018-10-18T06:32:16.569Z,12.30
2018-10-18T06:33:16.637Z,13.30
2018-10-18T06:34:16.523Z,13.40
2018-10-18T06:36:03.528Z,12.80
2018-10-18T06:37:03.578Z,12.00
2018-10-18T06:38:03.468Z,13.20
2018-10-18T06:39:03.477Z,13.20
2018-10-18T06:40:03.408Z,13.20
2018-10-18T06:41:03.428Z,13.50
2018-10-18T06:42:03.355Z,13.40
2018-10-18T06:43:03.497Z,13.10
2018-10-18T06:44:03.308Z,13.30
2018-10-18T06:45:03.337Z,12.40
2018-10-18T06:46:03.259Z,13.10
2018-10-18T06:47:03.333Z,12.80
2018-10-18T06:48:03.271Z,15.90
2018-10-18T06:49:03.365Z,13.10
2018-10-18T06:50:03.165Z,12.80
2018-10-18T06:51:03.168Z,13.10
2018-10-18T06:52:50.068Z,12.70
2018-10-18T06:53:50.039Z,12.40
2018-10-18T06:55:44.265Z,12.60
2018-10-18T06:56:44.266Z,13.10
2018-10-18T06:57:44.177Z,12.00
2018-10-18T06:58:44.177Z,12.80
2018-10-18T06:59:44.162Z,12.90
2018-10-18T07:00:44.181Z,11.80
2018-10-18T07:01:44.072Z,12.40
2018-10-18T07:02:44.095Z,12.40
2018-10-18T07:03:44.013Z,12.40
2018-10-18T07:04:44.009Z,11.70
2018-10-18T07:05:30.053Z,12.20
2018-10-18T07:06:30.009Z,12.70
2018-10-18T07:07:29.981Z,12.10
2018-10-18T07:08:30.051Z,12.60
2018-10-18T07:09:29.931Z,12.50
2018-10-18T07:10:30.071Z,11.80
2018-10-18T07:11:29.877Z,12.80
2018-10-18T07:12:30.025Z,12.40
2018-10-18T07:13:29.829Z,11.00
2018-10-18T07:14:29.802Z,11.60
2018-10-18T07:15:29.838Z,13.00
2018-10-18T07:16:29.789Z,11.90
2018-10-18T07:17:29.769Z,11.10
2018-10-18T07:18:29.706Z,11.10
2018-10-18T07:19:30.789Z,10.30
2018-10-18T07:20:29.664Z,11.00
2018-10-18T07:21:29.675Z,10.90
2018-10-18T07:22:29.595Z,10.80
2018-10-18T07:23:29.587Z,11.40
2018-10-18T07:24:29.545Z,10.20
2018-10-18T07:25:29.622Z,10.90
2018-10-18T07:26:29.505Z,10.80
2018-10-18T07:27:29.536Z,10.80
2018-10-18T07:28:29.468Z,10.90
2018-10-18T07:29:29.416Z,11.00
2018-10-18T07:30:29.388Z,10.80
2018-10-18T07:32:15.688Z,12.10
2018-10-18T07:33:15.730Z,11.10
2018-10-18T07:34:15.627Z,11.40
2018-10-18T07:35:15.661Z,11.30
2018-10-18T07:36:15.757Z,11.00
2018-10-18T07:37:15.667Z,11.10
2018-10-18T07:39:01.987Z,11.00
2018-10-18T07:40:02.052Z,10.80
2018-10-18T07:41:01.931Z,10.50
2018-10-18T07:42:01.974Z,10.50
2018-10-18T07:43:01.970Z,11.10
2018-10-18T07:44:01.853Z,10.30
2018-10-18T07:45:01.858Z,11.00
2018-10-18T07:46:01.801Z,10.40
2018-10-18T07:47:01.892Z,10.40
2018-10-18T07:48:01.765Z,10.10
2018-10-18T07:49:01.724Z,11.00
2018-10-18T07:50:01.689Z,10.90
2018-10-18T07:51:01.765Z,10.70
2018-10-18T07:52:01.645Z,10.70
2018-10-18T07:53:01.635Z,10.70
2018-10-18T07:54:01.623Z,10.50
2018-10-18T07:55:01.635Z,11.40
2018-10-18T07:56:01.539Z,11.00
2018-10-18T07:57:01.508Z,10.80
2018-10-18T07:58:01.500Z,10.60
2018-10-18T07:59:01.469Z,10.60
2018-10-18T08:00:01.523Z,10.60
2018-10-18T08:01:01.471Z,11.10
2018-10-18T08:02:01.386Z,11.60
2018-10-18T08:03:01.372Z,10.90
2018-10-18T08:04:01.341Z,11.30
2018-10-18T08:05:47.702Z,11.50
2018-10-18T08:06:47.659Z,10.00
2018-10-18T08:07:47.635Z,10.80
2018-10-18T08:08:47.609Z,10.60
2018-10-18T08:09:47.601Z,11.00
2018-10-18T08:10:47.585Z,11.60
2018-10-18T08:11:47.534Z,10.20
2018-10-18T08:12:47.515Z,10.70
2018-10-18T08:13:47.499Z,10.80
2018-10-18T08:14:47.456Z,11.00
2018-10-18T08:15:47.429Z,10.40
2018-10-18T08:16:47.545Z,9.80
2018-10-18T08:17:47.391Z,10.30
2018-10-18T08:18:47.353Z,9.70
2018-10-18T08:19:47.326Z,9.70
2018-10-18T08:21:34.229Z,8.90
2018-10-18T08:22:34.228Z,9.80
2018-10-18T08:23:34.277Z,10.00
2018-10-18T08:24:34.133Z,9.30
2018-10-18T08:25:34.135Z,9.80
2018-10-18T08:26:34.091Z,9.40
2018-10-18T08:27:35.127Z,8.70
2018-10-18T08:28:34.065Z,8.60
2018-10-18T08:29:34.018Z,9.10
2018-10-18T08:30:33.991Z,8.90
2018-10-18T08:31:34.048Z,8.80
2018-10-18T08:32:33.936Z,8.80
2018-10-18T08:33:33.910Z,9.30
2018-10-18T08:34:33.883Z,9.50
2018-10-18T08:35:33.943Z,9.00
2018-10-18T08:36:33.833Z,8.80
2018-10-18T08:37:33.858Z,9.70
2018-10-18T08:38:33.780Z,9.20
2018-10-18T08:39:33.867Z,9.10
2018-10-18T08:41:20.127Z,10.30
2018-10-18T08:42:20.164Z,8.90
2018-10-18T08:43:20.067Z,9.30
2018-10-18T08:44:20.107Z,9.30
2018-10-18T08:45:20.021Z,8.90
2018-10-18T08:46:20.189Z,8.30
2018-10-18T08:47:19.956Z,8.20
2018-10-18T08:48:19.997Z,7.80
2018-10-18T08:49:19.905Z,7.20
2018-10-18T08:50:19.908Z,8.30
2018-10-18T08:51:19.861Z,7.60
2018-10-18T08:52:19.959Z,7.90
2018-10-18T08:53:19.814Z,7.60
2018-10-18T08:54:19.782Z,7.70
2018-10-18T08:55:19.970Z,8.30
2018-10-18T08:56:19.739Z,8.10
2018-10-18T08:57:19.717Z,7.80
2018-10-18T08:58:19.683Z,8.50
2018-10-18T08:59:19.917Z,8.10
2018-10-18T09:00:19.661Z,7.80
2018-10-18T09:01:19.686Z,8.10
2018-10-18T09:02:19.592Z,8.20
2018-10-18T09:03:19.583Z,7.80
2018-10-18T09:04:19.543Z,7.60
2018-10-18T09:05:19.590Z,7.40
2018-10-18T09:06:19.471Z,7.60
2018-10-18T09:07:20.527Z,7.80
2018-10-18T09:08:19.431Z,7.30
2018-10-18T09:09:19.437Z,7.20
2018-10-18T09:10:19.374Z,7.10
2018-10-18T09:12:05.336Z,7.70
2018-10-18T09:13:05.366Z,7.20
2018-10-18T09:14:05.263Z,7.80
2018-10-18T09:15:05.341Z,7.20
2018-10-18T09:16:05.239Z,7.00
2018-10-18T09:17:05.231Z,7.00
2018-10-18T09:18:05.152Z,7.00
2018-10-18T09:19:05.172Z,7.10
2018-10-18T09:20:05.099Z,7.10
2018-10-18T09:21:05.166Z,6.60
2018-10-18T09:22:05.051Z,7.10
2018-10-18T09:23:05.085Z,6.80
2018-10-18T09:24:04.996Z,6.50
2018-10-18T09:25:05.165Z,7.00
2018-10-18T09:26:04.957Z,6.20
2018-10-18T09:27:05.005Z,6.10
2018-10-18T09:28:04.897Z,6.80
2018-10-18T09:29:04.926Z,6.20
2018-10-18T09:30:04.853Z,6.10
2018-10-18T09:31:04.951Z,6.20
2018-10-18T09:32:04.791Z,6.10
2018-10-18T09:33:04.946Z,6.50
2018-10-18T09:34:04.747Z,5.70
2018-10-18T09:35:04.862Z,5.50
2018-10-18T09:36:04.692Z,7.10
2018-10-18T09:37:04.806Z,7.40
2018-10-18T09:37:51.149Z,7.90
2018-10-18T09:38:51.163Z,6.80
2018-10-18T09:40:44.971Z,6.90
2018-10-18T09:41:44.910Z,6.40
2018-10-18T09:42:45.025Z,6.40
2018-10-18T09:43:44.802Z,7.00
2018-10-18T09:44:44.995Z,7.10
2018-10-18T09:45:44.751Z,6.70
2018-10-18T09:46:44.818Z,6.90
2018-10-18T09:47:44.702Z,6.60
2018-10-18T09:48:44.835Z,6.50
2018-10-18T09:49:44.651Z,6.30
2018-10-18T09:50:44.751Z,6.40
2018-10-18T09:51:44.610Z,6.20
2018-10-18T09:52:44.771Z,6.40
2018-10-18T09:53:44.548Z,6.20
2018-10-18T09:54:44.676Z,6.50
2018-10-18T09:55:44.575Z,6.40
2018-10-18T09:56:44.579Z,6.60
2018-10-18T09:57:44.453Z,7.00
2018-10-18T09:58:44.588Z,5.70
2018-10-18T09:59:44.396Z,6.50
2018-10-18T10:01:31.269Z,6.20
2018-10-18T10:02:32.349Z,6.20
2018-10-18T10:03:31.228Z,5.50
2018-10-18T10:04:31.328Z,4.60
2018-10-18T10:05:31.147Z,4.60
2018-10-18T10:06:32.261Z,5.30
2018-10-18T10:07:31.108Z,6.00
2018-10-18T10:08:31.252Z,6.40
2018-10-18T10:09:31.057Z,5.70
2018-10-18T10:10:31.166Z,6.80
2018-10-18T10:11:31.014Z,5.80
2018-10-18T10:12:31.072Z,5.90
2018-10-18T10:13:31.019Z,6.40
2018-10-18T10:14:30.978Z,5.70
2018-10-18T10:15:30.902Z,6.20
2018-10-18T10:16:30.951Z,5.60
2018-10-18T10:17:30.889Z,5.70
2018-10-18T10:18:30.987Z,5.70
2018-10-18T10:19:17.100Z,7.30
2018-10-18T10:20:16.993Z,5.90
2018-10-18T10:21:16.946Z,6.20
2018-10-18T10:22:16.926Z,6.50
2018-10-18T10:23:16.898Z,7.30
2018-10-18T10:24:16.864Z,6.60
2018-10-18T10:25:16.946Z,7.40
2018-10-18T10:26:16.820Z,7.80
2018-10-18T10:27:16.801Z,7.80
2018-10-18T10:28:16.766Z,7.20
2018-10-18T10:29:16.739Z,7.60
2018-10-18T10:30:16.750Z,7.50
2018-10-18T10:31:16.795Z,7.60
2018-10-18T10:32:16.684Z,7.40
2018-10-18T10:33:16.672Z,7.40
2018-10-18T10:34:16.610Z,7.70
2018-10-18T10:35:16.652Z,8.40
2018-10-18T10:36:16.572Z,8.00
2018-10-18T10:37:16.731Z,7.80
2018-10-18T10:38:16.511Z,8.00
2018-10-18T10:40:02.950Z,8.00
2018-10-18T10:41:02.880Z,7.30
2018-10-18T10:42:03.128Z,7.00
2018-10-18T10:43:02.866Z,7.70
2018-10-18T10:44:03.008Z,7.70
2018-10-18T10:45:02.795Z,8.20
2018-10-18T10:46:02.867Z,9.00
2018-10-18T10:47:02.687Z,9.70
2018-10-18T10:48:02.844Z,9.80
2018-10-18T10:49:02.646Z,10.40
2018-10-18T10:50:02.686Z,9.70
2018-10-18T10:51:02.654Z,10.10
2018-10-18T10:52:02.821Z,9.60
2018-10-18T10:53:02.539Z,9.20
2018-10-18T10:54:02.735Z,10.00
2018-10-18T10:55:02.486Z,10.90
2018-10-18T10:56:02.649Z,10.60
2018-10-18T10:57:02.518Z,9.90
2018-10-18T10:58:02.619Z,9.80
2018-10-18T10:59:02.536Z,10.60
2018-10-18T11:00:02.550Z,10.20
2018-10-18T11:01:02.338Z,9.90
2018-10-18T11:02:02.427Z,10.30
2018-10-18T11:03:02.637Z,11.80
2018-10-18T11:04:03.423Z,10.50
2018-10-18T11:05:02.240Z,10.30
2018-10-18T11:06:02.389Z,10.70
2018-10-18T11:07:02.181Z,10.20
2018-10-18T11:08:02.313Z,10.00
2018-10-18T11:09:02.201Z,13.40
2018-10-18T11:10:02.219Z,11.80
2018-10-18T11:11:02.096Z,11.00
2018-10-18T11:12:02.198Z,11.30
2018-10-18T11:13:02.045Z,10.80
2018-10-18T11:14:02.104Z,10.80
2018-10-18T11:15:02.074Z,11.20
2018-10-18T11:16:02.024Z,9.50
2018-10-18T11:17:01.981Z,9.30
2018-10-18T11:18:02.050Z,9.50
2018-10-18T11:19:01.887Z,9.20
2018-10-18T11:20:02.050Z,8.30
2018-10-18T11:20:48.301Z,7.30
2018-10-18T11:21:48.372Z,7.60
2018-10-18T11:22:48.227Z,7.40
2018-10-18T11:23:48.241Z,7.60
2018-10-18T11:24:48.285Z,6.80
2018-10-18T11:25:48.249Z,6.90
2018-10-18T11:26:48.133Z,7.20
2018-10-18T11:27:48.164Z,7.00
2018-10-18T11:28:48.081Z,6.20
2018-10-18T11:29:48.069Z,6.40
2018-10-18T11:30:48.034Z,5.80
2018-10-18T11:31:48.085Z,5.30
2018-10-18T11:32:47.983Z,5.10
2018-10-18T11:33:47.991Z,5.00
2018-10-18T11:34:47.920Z,4.90
2018-10-18T11:35:48.006Z,4.40
2018-10-18T11:36:47.886Z,4.40
2018-10-18T11:37:47.857Z,4.50
2018-10-18T11:38:47.831Z,4.70
2018-10-18T11:39:47.799Z,4.30
2018-10-18T11:40:47.834Z,4.50
2018-10-18T11:41:47.753Z,4.00
2018-10-18T11:42:47.797Z,4.60
2018-10-18T11:43:47.706Z,4.10
2018-10-18T11:44:47.761Z,3.80
2018-10-18T11:45:47.656Z,3.70
2018-10-18T11:46:47.668Z,3.60
2018-10-18T11:47:47.605Z,3.50
2018-10-18T11:48:47.688Z,3.40
2018-10-18T11:49:47.555Z,3.10
2018-10-18T11:50:47.593Z,3.80
2018-10-18T11:51:47.594Z,3.80
2018-10-18T11:52:47.501Z,4.00
2018-10-18T11:53:47.464Z,4.20
2018-10-18T11:54:47.526Z,4.20
2018-10-18T11:55:47.404Z,3.90
2018-10-18T11:56:47.427Z,3.70
2018-10-18T11:57:47.348Z,3.40
2018-10-18T11:58:47.339Z,3.00
2018-10-18T11:59:47.298Z,3.70
2018-10-18T12:00:47.355Z,3.20
2018-10-18T12:01:47.255Z,3.60
2018-10-18T12:02:47.354Z,3.70
2018-10-18T12:03:47.201Z,3.60
2018-10-18T12:04:47.295Z,3.20
2018-10-18T12:05:47.147Z,3.60
2018-10-18T12:06:47.138Z,3.30
2018-10-18T12:07:47.112Z,3.00
2018-10-18T12:08:47.132Z,3.30
2018-10-18T12:09:47.082Z,3.20
2018-10-18T12:10:33.318Z,4.00
2018-10-18T12:11:33.241Z,3.20
2018-10-18T12:12:33.316Z,3.30
2018-10-18T12:13:33.184Z,3.50
2018-10-18T12:14:33.249Z,4.00
2018-10-18T12:15:33.137Z,4.10
2018-10-18T12:16:33.143Z,5.60
2018-10-18T12:17:33.077Z,3.60
2018-10-18T12:18:33.169Z,3.10
2018-10-18T12:19:33.035Z,3.00
2018-10-18T12:20:33.088Z,3.70
2018-10-18T12:21:32.968Z,5.80
2018-10-18T12:22:33.075Z,3.70
2018-10-18T12:23:32.938Z,4.00
2018-10-18T12:24:19.434Z,4.50
2018-10-18T12:25:19.487Z,4.00
2018-10-18T12:26:19.380Z,3.90
2018-10-18T12:27:19.439Z,4.00
2018-10-18T12:28:19.317Z,3.90
2018-10-18T12:29:19.412Z,3.80
2018-10-18T12:30:19.274Z,3.80
2018-10-18T12:31:19.330Z,3.90
2018-10-18T12:32:19.224Z,4.10
2018-10-18T12:33:19.331Z,3.90
2018-10-18T12:34:19.168Z,4.10
2018-10-18T12:35:19.264Z,3.90
2018-10-18T12:36:19.129Z,3.70
2018-10-18T12:37:19.156Z,4.20
2018-10-18T12:38:19.068Z,3.50
2018-10-18T12:39:19.180Z,3.90
2018-10-18T12:40:19.058Z,4.00
2018-10-18T12:41:21.266Z,3.80
2018-10-18T12:42:18.980Z,4.20
2018-10-18T12:43:20.020Z,4.90
2018-10-18T12:44:19.011Z,4.50
2018-10-18T12:45:20.028Z,4.70
2018-10-18T12:46:18.868Z,4.30
2018-10-18T12:47:18.924Z,4.70
2018-10-18T12:48:18.947Z,5.00
2018-10-18T12:49:18.928Z,5.20
2018-10-18T12:50:18.766Z,5.30
2018-10-18T12:51:18.843Z,5.10
2018-10-18T12:52:18.723Z,5.10
2018-10-18T12:53:18.751Z,5.00
2018-10-18T12:54:18.732Z,4.70
2018-10-18T12:55:18.662Z,4.30
2018-10-18T12:56:18.678Z,4.50
2018-10-18T12:57:18.673Z,4.00
2018-10-18T12:58:18.563Z,3.50
2018-10-18T12:59:18.691Z,2.80
2018-10-18T13:00:18.541Z,2.70
2018-10-18T13:01:19.627Z,3.00
2018-10-18T13:02:18.473Z,3.00
2018-10-18T13:03:18.508Z,3.20
2018-10-18T13:04:18.422Z,3.00
2018-10-18T13:05:18.525Z,3.60
2018-10-18T13:06:18.368Z,3.90
2018-10-18T13:07:18.434Z,4.30
2018-10-18T13:08:18.353Z,4.20
2018-10-18T13:09:18.452Z,4.20
2018-10-18T13:10:18.264Z,4.30
2018-10-18T13:11:18.360Z,4.70
2018-10-18T13:12:18.318Z,4.60
2018-10-18T13:13:18.273Z,4.00
2018-10-18T13:14:18.286Z,4.60
2018-10-18T13:15:18.288Z,4.10
2018-10-18T13:16:18.115Z,4.60
2018-10-18T13:17:18.214Z,4.70
2018-10-18T13:18:18.071Z,5.10
2018-10-18T13:19:18.135Z,4.60
2018-10-18T13:20:18.152Z,5.00
2018-10-18T13:21:18.093Z,4.90